createdAt,value
2023-01-21T08:29:19.703Z,-67
2023-01-21T08:35:30.669Z,-67
2023-01-21T08:47:02.851Z,-67
2023-01-21T08:53:11.920Z,-67
2023-01-21T08:59:27.211Z,-67
2023-01-21T09:05:34.498Z,-67
2023-01-21T09:11:43.157Z,-67
2023-01-21T09:17:50.862Z,-67
2023-01-21T09:23:58.412Z,-67
2023-01-21T09:29:54.898Z,-67
2023-01-21T09:36:07.604Z,-67
2023-01-21T09:42:25.229Z,-67
2023-01-21T09:48:47.661Z,-66
2023-01-21T09:54:57.576Z,-66
2023-01-21T10:01:27.739Z,-60
2023-01-21T10:05:06.670Z,-61
2023-01-21T10:08:00.132Z,-61
2023-01-21T10:10:37.640Z,-61
2023-01-21T10:14:14.293Z,-61
2023-01-21T10:17:43.024Z,-61
2023-01-21T10:20:34.317Z,-60
2023-01-21T10:23:43.543Z,-60
2023-01-21T10:26:17.241Z,-61
2023-01-21T10:28:54.069Z,-61
2023-01-21T10:31:39.219Z,-61
2023-01-21T10:34:19.470Z,-60
2023-01-21T10:37:11.363Z,-61
2023-01-21T10:40:17.384Z,-61
2023-01-21T10:43:07.070Z,-61
2023-01-21T10:46:31.394Z,-60
2023-01-21T10:50:24.260Z,-61
2023-01-21T10:53:44.267Z,-61
2023-01-21T10:57:06.505Z,-61
2023-01-21T10:59:38.148Z,-61
2023-01-21T11:02:30.267Z,-61
2023-01-21T11:05:11.367Z,-61
2023-01-21T11:07:42.437Z,-61
2023-01-21T11:10:19.354Z,-61
2023-01-21T11:12:48.003Z,-61
2023-01-21T11:15:20.430Z,-61
2023-01-21T11:17:59.636Z,-61
2023-01-21T11:20:41.691Z,-61
2023-01-21T11:23:32.060Z,-61
2023-01-21T11:26:21.211Z,-61
2023-01-21T11:28:48.596Z,-60
2023-01-21T11:31:27.397Z,-61
2023-01-21T11:34:03.317Z,-61
2023-01-21T11:36:31.045Z,-61
2023-01-21T11:39:14.225Z,-61
2023-01-21T11:41:57.958Z,-61
2023-01-21T11:44:25.946Z,-61
2023-01-21T11:46:53.569Z,-61
2023-01-21T11:49:31.452Z,-61
2023-01-21T11:52:20.070Z,-61
2023-01-21T11:54:48.476Z,-61
2023-01-21T11:57:32.846Z,-60
2023-01-21T12:00:20.084Z,-61
2023-01-21T12:03:00.644Z,-67
2023-01-21T12:05:40.836Z,-65
2023-01-21T12:08:21.705Z,-68
2023-01-21T12:10:51.292Z,-67
2023-01-21T12:13:40.648Z,-67
2023-01-21T12:16:49.512Z,-67
2023-01-21T12:19:45.595Z,-67
2023-01-21T12:23:36.277Z,-67
2023-01-21T12:26:48.047Z,-68
2023-01-21T12:30:11.980Z,-68
2023-01-21T12:32:51.579Z,-68
2023-01-21T12:35:56.028Z,-68
2023-01-21T12:38:34.829Z,-68
2023-01-21T12:41:26.444Z,-67
2023-01-21T12:44:50.471Z,-67
2023-01-21T12:47:44.012Z,-67
2023-01-21T12:50:36.018Z,-68
2023-01-21T12:53:50.511Z,-67
2023-01-21T12:56:50.660Z,-67
2023-01-21T12:59:42.553Z,-67
2023-01-21T13:02:35.680Z,-67
2023-01-21T13:06:18.103Z,-67
2023-01-21T13:09:19.519Z,-68
2023-01-21T13:11:58.128Z,-67
2023-01-21T13:15:04.113Z,-67
2023-01-21T13:17:38.312Z,-67
2023-01-21T13:20:22.702Z,-67
2023-01-21T13:24:01.487Z,-67
2023-01-21T13:27:22.643Z,-67
2023-01-21T13:30:10.674Z,-67
2023-01-21T13:32:52.690Z,-66
2023-01-21T13:35:55.496Z,-69
2023-01-21T13:38:49.984Z,-67
2023-01-21T13:42:22.513Z,-67
2023-01-21T13:45:42.996Z,-68
2023-01-21T13:48:44.923Z,-67
2023-01-21T13:52:01.461Z,-67
2023-01-21T13:54:52.880Z,-68
2023-01-21T13:58:30.349Z,-67
2023-01-21T14:01:26.205Z,-67
2023-01-21T14:04:15.596Z,-66
2023-01-21T14:06:57.588Z,-66
2023-01-21T14:09:49.694Z,-66
2023-01-21T14:13:29.273Z,-66
2023-01-21T14:16:36.131Z,-66
2023-01-21T14:19:44.759Z,-66
2023-01-21T14:24:02.869Z,-67
2023-01-21T14:27:25.255Z,-66
2023-01-21T14:30:24.473Z,-67
2023-01-21T14:33:06.932Z,-68
2023-01-21T14:36:15.523Z,-67
2023-01-21T14:39:19.931Z,-67
2023-01-21T14:42:17.609Z,-66
2023-01-21T14:45:08.311Z,-67
2023-01-21T14:47:35.400Z,-66
2023-01-21T14:50:03.066Z,-66
2023-01-21T14:52:45.748Z,-66
2023-01-21T14:55:32.979Z,-67
2023-01-21T14:58:01.850Z,-68
2023-01-21T15:00:34.820Z,-68
2023-01-21T15:03:28.435Z,-68
2023-01-21T15:06:08.003Z,-67
2023-01-21T15:08:46.383Z,-67
2023-01-21T15:11:41.113Z,-67
2023-01-21T15:14:33.400Z,-67
2023-01-21T15:17:01.064Z,-67
2023-01-21T15:19:37.460Z,-69
2023-01-21T15:22:37.681Z,-68
2023-01-21T15:25:31.777Z,-68
2023-01-21T15:28:57.654Z,-68
2023-01-21T15:31:45.125Z,-68
2023-01-21T15:34:18.421Z,-68
2023-01-21T15:36:57.321Z,-69
2023-01-21T15:39:34.512Z,-68
2023-01-21T15:42:44.343Z,-68
2023-01-21T15:45:41.070Z,-68
2023-01-21T15:48:42.728Z,-68
2023-01-21T15:51:31.549Z,-68
2023-01-21T15:54:49.058Z,-67
2023-01-21T15:58:06.275Z,-67
2023-01-21T16:01:01.838Z,-67
2023-01-21T16:04:12.532Z,-66
2023-01-21T16:07:32.826Z,-66
2023-01-21T16:10:45.189Z,-66
2023-01-21T16:13:49.688Z,-66
2023-01-21T16:16:47.209Z,-66
2023-01-21T16:19:35.054Z,-67
2023-01-21T16:22:07.664Z,-67
2023-01-21T16:24:48.557Z,-67
2023-01-21T16:27:24.841Z,-68
2023-01-21T16:30:35.220Z,-67
2023-01-21T16:33:15.359Z,-68
2023-01-21T16:36:01.023Z,-67
2023-01-21T16:38:32.557Z,-68
2023-01-21T16:41:08.567Z,-61
2023-01-21T16:43:58.535Z,-61
2023-01-21T16:46:40.299Z,-61
2023-01-21T16:49:17.103Z,-61
2023-01-21T16:52:01.884Z,-61
2023-01-21T16:54:33.349Z,-61
2023-01-21T16:57:25.731Z,-61
2023-01-21T16:59:55.841Z,-61
2023-01-21T17:02:32.147Z,-61
2023-01-21T17:05:05.152Z,-61
2023-01-21T17:07:46.918Z,-61
2023-01-21T17:10:29.539Z,-61
2023-01-21T17:13:04.688Z,-61
2023-01-21T17:16:09.444Z,-61
2023-01-21T17:18:52.118Z,-61
2023-01-21T17:21:44.223Z,-61
2023-01-21T17:24:38.521Z,-62
2023-01-21T17:27:18.179Z,-61
2023-01-21T17:29:45.593Z,-61
2023-01-21T17:32:33.547Z,-62
2023-01-21T17:35:16.111Z,-61
